sensor_id;sensor_type;location;lat;lon;timestamp;pressure;altitude;pressure_sealevel;temperature;humidity
20368;BME280;10343;52.402;9.796;2023-02-19T00:01:47;100815.53;;;13.81;89.31
20368;BME280;10343;52.402;9.796;2023-02-19T00:04:18;100815.31;;;13.87;89.09
20368;BME280;10343;52.402;9.796;2023-02-19T00:06:47;100815.72;;;13.76;90.12
20368;BME280;10343;52.402;9.796;2023-02-19T00:09:17;100812.47;;;13.66;90.33
20368;BME280;10343;52.402;9.796;2023-02-19T00:11:46;100809.38;;;13.79;89.24
20368;BME280;10343;52.402;9.796;2023-02-19T00:14:16;100806.59;;;13.56;90.38
20368;BME280;10343;52.402;9.796;2023-02-19T00:16:45;100801.50;;;13.75;89.55
20368;BME280;10343;52.402;9.796;2023-02-19T00:19:14;100790.53;;;13.59;89.94
20368;BME280;10343;52.402;9.796;2023-02-19T00:21:44;100787.94;;;13.83;87.99
20368;BME280;10343;52.402;9.796;2023-02-19T00:24:13;100775.09;;;13.69;87.78
20368;BME280;10343;52.402;9.796;2023-02-19T00:26:42;100776.59;;;13.76;88.89
20368;BME280;10343;52.402;9.796;2023-02-19T00:29:12;100776.28;;;13.86;88.12
20368;BME280;10343;52.402;9.796;2023-02-19T00:31:41;100780.84;;;14.07;87.05
20368;BME280;10343;52.402;9.796;2023-02-19T00:34:10;100785.91;;;13.90;87.41
20368;BME280;10343;52.402;9.796;2023-02-19T00:36:39;100783.78;;;14.00;87.56
20368;BME280;10343;52.402;9.796;2023-02-19T00:39:11;100777.56;;;13.99;87.47
20368;BME280;10343;52.402;9.796;2023-02-19T00:41:40;100768.66;;;14.00;87.66
20368;BME280;10343;52.402;9.796;2023-02-19T00:44:09;100751.38;;;13.33;92.54
20368;BME280;10343;52.402;9.796;2023-02-19T00:46:40;100741.44;;;13.40;95.45
20368;BME280;10343;52.402;9.796;2023-02-19T00:49:14;100723.13;;;13.29;99.54
20368;BME280;10343;52.402;9.796;2023-02-19T00:51:43;100713.72;;;13.19;100.00
20368;BME280;10343;52.402;9.796;2023-02-19T00:54:12;100699.09;;;13.32;100.00
20368;BME280;10343;52.402;9.796;2023-02-19T00:56:40;100692.25;;;13.23;100.00
20368;BME280;10343;52.402;9.796;2023-02-19T00:59:08;100690.69;;;13.45;100.00
20368;BME280;10343;52.402;9.796;2023-02-19T01:01:36;100683.06;;;13.34;100.00
20368;BME280;10343;52.402;9.796;2023-02-19T01:04:04;100687.00;;;13.49;100.00
20368;BME280;10343;52.402;9.796;2023-02-19T01:06:32;100684.13;;;13.55;100.00
20368;BME280;10343;52.402;9.796;2023-02-19T01:09:01;100694.34;;;13.67;100.00
20368;BME280;10343;52.402;9.796;2023-02-19T01:11:31;100696.06;;;13.68;100.00
20368;BME280;10343;52.402;9.796;2023-02-19T01:14:00;100416.72;;;18.30;100.00
20368;BME280;10343;52.402;9.796;2023-02-19T01:16:29;100226.69;;;28.15;100.00
20368;BME280;10343;52.402;9.796;2023-02-19T01:18:58;100240.66;;;29.48;100.00
20368;BME280;10343;52.402;9.796;2023-02-19T01:21:27;100430.56;;;22.95;100.00
20368;BME280;10343;52.402;9.796;2023-02-19T01:23:56;100163.22;;;31.16;100.00
20368;BME280;10343;52.402;9.796;2023-02-19T01:26:27;100052.81;;;40.66;100.00
20368;BME280;10343;52.402;9.796;2023-02-19T01:28:57;100193.78;;;42.63;100.00
20368;BME280;10343;52.402;9.796;2023-02-19T01:31:25;100820.50;;;19.84;95.62
20368;BME280;10343;52.402;9.796;2023-02-19T01:33:55;100669.69;;;16.96;100.00
20368;BME280;10343;52.402;9.796;2023-02-19T01:36:24;100684.81;;;13.35;100.00
20368;BME280;10343;52.402;9.796;2023-02-19T01:38:53;100680.00;;;15.91;100.00
20368;BME280;10343;52.402;9.796;2023-02-19T01:41:23;100770.63;;;23.98;100.00
20368;BME280;10343;52.402;9.796;2023-02-19T01:43:58;100641.47;;;15.56;100.00
20368;BME280;10343;52.402;9.796;2023-02-19T01:46:28;100417.97;;;37.08;100.00
20368;BME280;10343;52.402;9.796;2023-02-19T01:49:03;100755.44;;;34.78;90.52
20368;BME280;10343;52.402;9.796;2023-02-19T01:51:34;100759.63;;;36.03;84.87
20368;BME280;10343;52.402;9.796;2023-02-19T01:54:05;100705.28;;;22.35;100.00
20368;BME280;10343;52.402;9.796;2023-02-19T01:56:37;100773.47;;;23.61;76.01
20368;BME280;10343;52.402;9.796;2023-02-19T01:59:07;100757.63;;;19.40;89.55
20368;BME280;10343;52.402;9.796;2023-02-19T02:01:37;100759.72;;;15.61;99.88
20368;BME280;10343;52.402;9.796;2023-02-19T02:04:07;100748.75;;;16.67;95.99
20368;BME280;10343;52.402;9.796;2023-02-19T02:06:41;100744.19;;;13.89;100.00
20368;BME280;10343;52.402;9.796;2023-02-19T02:09:11;100710.25;;;16.89;100.00
20368;BME280;10343;52.402;9.796;2023-02-19T02:11:57;100723.72;;;16.68;100.00
20368;BME280;10343;52.402;9.796;2023-02-19T02:14:30;100734.75;;;14.97;99.85
20368;BME280;10343;52.402;9.796;2023-02-19T02:17:08;100734.06;;;14.46;100.00
20368;BME280;10343;52.402;9.796;2023-02-19T02:20:03;100729.44;;;14.51;100.00
20368;BME280;10343;52.402;9.796;2023-02-19T02:22:43;100734.34;;;14.62;100.00
20368;BME280;10343;52.402;9.796;2023-02-19T02:28:24;100725.03;;;14.03;100.00
20368;BME280;10343;52.402;9.796;2023-02-19T02:31:03;100717.81;;;14.30;100.00
20368;BME280;10343;52.402;9.796;2023-02-19T02:33:38;100724.41;;;14.43;100.00
20368;BME280;10343;52.402;9.796;2023-02-19T02:36:12;100717.31;;;14.66;100.00
20368;BME280;10343;52.402;9.796;2023-02-19T02:38:45;100720.31;;;14.57;100.00
20368;BME280;10343;52.402;9.796;2023-02-19T02:41:14;100721.41;;;14.51;100.00
20368;BME280;10343;52.402;9.796;2023-02-19T02:43:42;100718.47;;;14.59;100.00
20368;BME280;10343;52.402;9.796;2023-02-19T02:46:16;100714.66;;;14.66;100.00
20368;BME280;10343;52.402;9.796;2023-02-19T02:48:48;100727.09;;;14.42;100.00
20368;BME280;10343;52.402;9.796;2023-02-19T02:51:23;100720.91;;;14.65;100.00
20368;BME280;10343;52.402;9.796;2023-02-19T02:54:04;100702.69;;;14.53;100.00
20368;BME280;10343;52.402;9.796;2023-02-19T02:56:54;100694.50;;;14.35;100.00
20368;BME280;10343;52.402;9.796;2023-02-19T02:59:30;100694.06;;;14.22;100.00
20368;BME280;10343;52.402;9.796;2023-02-19T03:02:04;100682.72;;;13.93;100.00
20368;BME280;10343;52.402;9.796;2023-02-19T03:04:44;100692.50;;;14.40;100.00
20368;BME280;10343;52.402;9.796;2023-02-19T03:07:36;100691.78;;;14.37;100.00
20368;BME280;10343;52.402;9.796;2023-02-19T03:10:08;100676.31;;;14.69;100.00
20368;BME280;10343;52.402;9.796;2023-02-19T03:12:37;100677.88;;;14.51;100.00
20368;BME280;10343;52.402;9.796;2023-02-19T03:15:26;100673.72;;;13.72;100.00
20368;BME280;10343;52.402;9.796;2023-02-19T03:18:18;100688.81;;;14.89;100.00
20368;BME280;10343;52.402;9.796;2023-02-19T03:21:05;100708.91;;;13.82;100.00
20368;BME280;10343;52.402;9.796;2023-02-19T03:23:37;100716.06;;;12.74;100.00
20368;BME280;10343;52.402;9.796;2023-02-19T03:26:24;100717.00;;;11.81;100.00
20368;BME280;10343;52.402;9.796;2023-02-19T03:28:54;100714.19;;;11.54;100.00
20368;BME280;10343;52.402;9.796;2023-02-19T03:31:44;100727.03;;;11.71;100.00
20368;BME280;10343;52.402;9.796;2023-02-19T03:34:20;100722.00;;;12.25;100.00
20368;BME280;10343;52.402;9.796;2023-02-19T03:36:57;100731.03;;;11.18;100.00
20368;BME280;10343;52.402;9.796;2023-02-19T03:39:27;100724.44;;;11.33;100.00
20368;BME280;10343;52.402;9.796;2023-02-19T03:42:02;100729.53;;;11.43;100.00
20368;BME280;10343;52.402;9.796;2023-02-19T03:44:40;100738.34;;;11.45;100.00
20368;BME280;10343;52.402;9.796;2023-02-19T03:47:14;100757.00;;;11.75;100.00
20368;BME280;10343;52.402;9.796;2023-02-19T03:49:48;100756.88;;;12.14;100.00
20368;BME280;10343;52.402;9.796;2023-02-19T03:52:25;100755.09;;;11.80;100.00
20368;BME280;10343;52.402;9.796;2023-02-19T03:55:01;100753.06;;;11.56;100.00
20368;BME280;10343;52.402;9.796;2023-02-19T03:57:36;100761.13;;;11.53;100.00
20368;BME280;10343;52.402;9.796;2023-02-19T04:00:10;100761.25;;;11.49;100.00
20368;BME280;10343;52.402;9.796;2023-02-19T04:02:45;100776.56;;;10.62;100.00
20368;BME280;10343;52.402;9.796;2023-02-19T04:05:18;100769.28;;;11.10;100.00
20368;BME280;10343;52.402;9.796;2023-02-19T04:07:49;100780.13;;;11.36;100.00
20368;BME280;10343;52.402;9.796;2023-02-19T04:10:23;100790.06;;;11.64;100.00
20368;BME280;10343;52.402;9.796;2023-02-19T04:12:55;100791.44;;;11.43;100.00
20368;BME280;10343;52.402;9.796;2023-02-19T04:15:29;100787.63;;;11.55;100.00
20368;BME280;10343;52.402;9.796;2023-02-19T04:18:01;100727.88;;;16.17;100.00
20368;BME280;10343;52.402;9.796;2023-02-19T04:20:36;100792.84;;;11.58;100.00
20368;BME280;10343;52.402;9.796;2023-02-19T04:23:06;100816.50;;;11.33;100.00
20368;BME280;10343;52.402;9.796;2023-02-19T04:25:35;100813.41;;;11.14;100.00
20368;BME280;10343;52.402;9.796;2023-02-19T04:28:06;100830.22;;;11.13;100.00
20368;BME280;10343;52.402;9.796;2023-02-19T04:30:34;100829.28;;;11.53;100.00
20368;BME280;10343;52.402;9.796;2023-02-19T04:33:02;100826.59;;;11.17;100.00
20368;BME280;10343;52.402;9.796;2023-02-19T04:35:30;100840.25;;;11.00;100.00
20368;BME280;10343;52.402;9.796;2023-02-19T04:38:00;100848.59;;;10.83;100.00
20368;BME280;10343;52.402;9.796;2023-02-19T04:40:28;100848.84;;;10.70;100.00
20368;BME280;10343;52.402;9.796;2023-02-19T04:42:55;100854.47;;;10.55;100.00
20368;BME280;10343;52.402;9.796;2023-02-19T04:45:23;100841.19;;;10.10;100.00
20368;BME280;10343;52.402;9.796;2023-02-19T04:47:51;100845.13;;;10.34;100.00
20368;BME280;10343;52.402;9.796;2023-02-19T04:50:19;100852.00;;;9.97;100.00
20368;BME280;10343;52.402;9.796;2023-02-19T04:52:48;100873.44;;;10.32;100.00
20368;BME280;10343;52.402;9.796;2023-02-19T04:55:18;100884.25;;;10.21;100.00
20368;BME280;10343;52.402;9.796;2023-02-19T04:57:46;100875.88;;;9.94;100.00
20368;BME280;10343;52.402;9.796;2023-02-19T05:00:14;100890.78;;;10.00;100.00
20368;BME280;10343;52.402;9.796;2023-02-19T05:02:42;100908.88;;;10.25;100.00
20368;BME280;10343;52.402;9.796;2023-02-19T05:05:10;100916.53;;;9.92;100.00
20368;BME280;10343;52.402;9.796;2023-02-19T05:07:38;100904.97;;;9.41;100.00
20368;BME280;10343;52.402;9.796;2023-02-19T05:10:06;100866.31;;;13.19;100.00
20368;BME280;10343;52.402;9.796;2023-02-19T05:12:36;100868.56;;;13.88;100.00
20368;BME280;10343;52.402;9.796;2023-02-19T05:15:04;100941.91;;;11.00;100.00
20368;BME280;10343;52.402;9.796;2023-02-19T05:17:32;100940.72;;;11.56;100.00
20368;BME280;10343;52.402;9.796;2023-02-19T05:20:01;100942.00;;;10.97;100.00
20368;BME280;10343;52.402;9.796;2023-02-19T05:22:29;100949.94;;;10.97;100.00
20368;BME280;10343;52.402;9.796;2023-02-19T05:24:57;100952.78;;;10.88;100.00
20368;BME280;10343;52.402;9.796;2023-02-19T05:27:25;100957.06;;;10.50;100.00
20368;BME280;10343;52.402;9.796;2023-02-19T05:29:54;100942.34;;;9.79;100.00
20368;BME280;10343;52.402;9.796;2023-02-19T05:32:22;100958.56;;;11.10;100.00
20368;BME280;10343;52.402;9.796;2023-02-19T05:34:50;100968.72;;;10.40;100.00
20368;BME280;10343;52.402;9.796;2023-02-19T05:37:18;100961.06;;;9.66;100.00
20368;BME280;10343;52.402;9.796;2023-02-19T05:39:47;100965.91;;;9.97;100.00
20368;BME280;10343;52.402;9.796;2023-02-19T05:42:15;100972.13;;;9.95;100.00
20368;BME280;10343;52.402;9.796;2023-02-19T05:44:43;100987.03;;;10.55;100.00
20368;BME280;10343;52.402;9.796;2023-02-19T05:47:13;100997.66;;;9.99;100.00
20368;BME280;10343;52.402;9.796;2023-02-19T05:49:41;100999.72;;;9.78;100.00
20368;BME280;10343;52.402;9.796;2023-02-19T05:52:09;101008.09;;;11.08;100.00
20368;BME280;10343;52.402;9.796;2023-02-19T05:54:37;101018.94;;;10.49;100.00
20368;BME280;10343;52.402;9.796;2023-02-19T05:57:05;101022.88;;;9.62;100.00
20368;BME280;10343;52.402;9.796;2023-02-19T05:59:33;101017.66;;;9.59;100.00
20368;BME280;10343;52.402;9.796;2023-02-19T06:02:01;101033.31;;;9.05;100.00
20368;BME280;10343;52.402;9.796;2023-02-19T06:04:31;101039.94;;;8.59;100.00
20368;BME280;10343;52.402;9.796;2023-02-19T06:06:59;101043.44;;;8.64;100.00
20368;BME280;10343;52.402;9.796;2023-02-19T06:09:27;101055.78;;;8.62;100.00
20368;BME280;10343;52.402;9.796;2023-02-19T06:11:55;101058.59;;;8.36;100.00
20368;BME280;10343;52.402;9.796;2023-02-19T06:14:23;101082.75;;;8.96;100.00
20368;BME280;10343;52.402;9.796;2023-02-19T06:16:51;101090.03;;;8.73;100.00
20368;BME280;10343;52.402;9.796;2023-02-19T06:19:19;101106.38;;;9.16;100.00
20368;BME280;10343;52.402;9.796;2023-02-19T06:21:50;101106.66;;;9.66;100.00
20368;BME280;10343;52.402;9.796;2023-02-19T06:24:18;101116.50;;;8.70;100.00
20368;BME280;10343;52.402;9.796;2023-02-19T06:26:46;101116.31;;;8.91;100.00
20368;BME280;10343;52.402;9.796;2023-02-19T06:29:15;101127.09;;;8.65;100.00
20368;BME280;10343;52.402;9.796;2023-02-19T06:31:43;101119.09;;;8.74;100.00
20368;BME280;10343;52.402;9.796;2023-02-19T06:34:12;101116.81;;;8.28;100.00
20368;BME280;10343;52.402;9.796;2023-02-19T06:36:40;101121.75;;;8.73;100.00
20368;BME280;10343;52.402;9.796;2023-02-19T06:39:09;101141.13;;;8.78;100.00
20368;BME280;10343;52.402;9.796;2023-02-19T06:41:37;101156.19;;;8.66;100.00
20368;BME280;10343;52.402;9.796;2023-02-19T06:44:05;101165.34;;;9.26;100.00
20368;BME280;10343;52.402;9.796;2023-02-19T06:46:33;101168.50;;;8.66;100.00
20368;BME280;10343;52.402;9.796;2023-02-19T06:49:03;101178.16;;;8.75;100.00
20368;BME280;10343;52.402;9.796;2023-02-19T06:51:31;101188.63;;;8.87;100.00
20368;BME280;10343;52.402;9.796;2023-02-19T06:53:59;101195.88;;;8.60;100.00
20368;BME280;10343;52.402;9.796;2023-02-19T06:56:31;101199.25;;;8.81;100.00
20368;BME280;10343;52.402;9.796;2023-02-19T06:59:02;101209.88;;;8.72;100.00
20368;BME280;10343;52.402;9.796;2023-02-19T07:01:31;101234.75;;;8.30;100.00
20368;BME280;10343;52.402;9.796;2023-02-19T07:04:00;101219.13;;;7.84;100.00
20368;BME280;10343;52.402;9.796;2023-02-19T07:06:28;101223.22;;;8.56;100.00
20368;BME280;10343;52.402;9.796;2023-02-19T07:08:57;101242.94;;;7.61;100.00
20368;BME280;10343;52.402;9.796;2023-02-19T07:11:28;101252.50;;;8.01;100.00
20368;BME280;10343;52.402;9.796;2023-02-19T07:13:59;101263.06;;;8.04;100.00
20368;BME280;10343;52.402;9.796;2023-02-19T07:16:28;101275.44;;;7.74;100.00
20368;BME280;10343;52.402;9.796;2023-02-19T07:18:57;101274.91;;;9.00;100.00
20368;BME280;10343;52.402;9.796;2023-02-19T07:21:26;101297.34;;;8.24;100.00
20368;BME280;10343;52.402;9.796;2023-02-19T07:23:55;101307.06;;;8.08;100.00
20368;BME280;10343;52.402;9.796;2023-02-19T07:26:23;101307.63;;;8.86;100.00
20368;BME280;10343;52.402;9.796;2023-02-19T07:28:51;101319.03;;;8.95;100.00
20368;BME280;10343;52.402;9.796;2023-02-19T07:31:22;101326.88;;;9.06;100.00
20368;BME280;10343;52.402;9.796;2023-02-19T07:33:50;101336.50;;;9.18;98.90
20368;BME280;10343;52.402;9.796;2023-02-19T07:36:20;101342.47;;;9.48;98.80
20368;BME280;10343;52.402;9.796;2023-02-19T07:38:52;101353.28;;;9.17;99.66
20368;BME280;10343;52.402;9.796;2023-02-19T07:41:21;101354.66;;;9.67;99.03
20368;BME280;10343;52.402;9.796;2023-02-19T07:43:50;101362.13;;;10.17;94.07
20368;BME280;10343;52.402;9.796;2023-02-19T07:46:21;101364.44;;;10.52;93.66
20368;BME280;10343;52.402;9.796;2023-02-19T07:48:49;101367.69;;;9.92;92.29
20368;BME280;10343;52.402;9.796;2023-02-19T07:51:18;101364.00;;;10.09;95.52
20368;BME280;10343;52.402;9.796;2023-02-19T07:53:48;101357.00;;;10.79;94.95
20368;BME280;10343;52.402;9.796;2023-02-19T07:56:17;101364.41;;;11.18;92.43
20368;BME280;10343;52.402;9.796;2023-02-19T07:58:45;101373.38;;;11.11;91.74
20368;BME280;10343;52.402;9.796;2023-02-19T08:01:18;101388.44;;;10.39;89.75
20368;BME280;10343;52.402;9.796;2023-02-19T08:04:09;101388.31;;;10.48;91.57
20368;BME280;10343;52.402;9.796;2023-02-19T08:06:36;101389.94;;;11.27;91.04
20368;BME280;10343;52.402;9.796;2023-02-19T08:09:04;101398.19;;;11.08;89.54
20368;BME280;10343;52.402;9.796;2023-02-19T08:11:33;101400.69;;;11.19;87.93
20368;BME280;10343;52.402;9.796;2023-02-19T08:14:18;101406.63;;;11.36;89.01
20368;BME280;10343;52.402;9.796;2023-02-19T08:16:49;101411.00;;;11.39;87.12
20368;BME280;10343;52.402;9.796;2023-02-19T08:19:19;101423.38;;;11.40;83.27
20368;BME280;10343;52.402;9.796;2023-02-19T08:21:48;101417.81;;;10.12;89.91
20368;BME280;10343;52.402;9.796;2023-02-19T08:24:16;101422.75;;;11.24;87.78
20368;BME280;10343;52.402;9.796;2023-02-19T08:26:44;101425.16;;;11.39;84.45
20368;BME280;10343;52.402;9.796;2023-02-19T08:29:12;101430.81;;;11.76;83.29
20368;BME280;10343;52.402;9.796;2023-02-19T08:31:40;101449.94;;;11.40;81.61
20368;BME280;10343;52.402;9.796;2023-02-19T08:34:09;101448.75;;;11.60;81.88
20368;BME280;10343;52.402;9.796;2023-02-19T08:36:38;101449.13;;;11.36;83.65
20368;BME280;10343;52.402;9.796;2023-02-19T08:39:07;101458.03;;;11.32;82.56
20368;BME280;10343;52.402;9.796;2023-02-19T08:41:36;101450.81;;;11.39;83.50
20368;BME280;10343;52.402;9.796;2023-02-19T08:44:04;101443.63;;;11.49;82.62
20368;BME280;10343;52.402;9.796;2023-02-19T08:46:32;101442.09;;;11.31;80.80
20368;BME280;10343;52.402;9.796;2023-02-19T08:49:00;101440.28;;;11.34;83.54
20368;BME280;10343;52.402;9.796;2023-02-19T08:51:28;101443.72;;;11.41;80.38
20368;BME280;10343;52.402;9.796;2023-02-19T08:54:01;101450.78;;;11.44;81.50
20368;BME280;10343;52.402;9.796;2023-02-19T08:56:29;101453.06;;;11.68;83.82
20368;BME280;10343;52.402;9.796;2023-02-19T08:58:57;101455.22;;;11.42;81.13
20368;BME280;10343;52.402;9.796;2023-02-19T09:01:25;101458.75;;;11.44;83.60
20368;BME280;10343;52.402;9.796;2023-02-19T09:03:53;101461.34;;;11.47;80.85
20368;BME280;10343;52.402;9.796;2023-02-19T09:06:21;101456.22;;;11.34;83.61
20368;BME280;10343;52.402;9.796;2023-02-19T09:08:49;101477.25;;;10.78;82.79
20368;BME280;10343;52.402;9.796;2023-02-19T09:11:19;101470.38;;;11.33;82.83
20368;BME280;10343;52.402;9.796;2023-02-19T09:13:47;101482.38;;;10.95;81.01
20368;BME280;10343;52.402;9.796;2023-02-19T09:16:15;101496.59;;;9.90;84.43
20368;BME280;10343;52.402;9.796;2023-02-19T09:18:43;101497.31;;;10.14;87.20
20368;BME280;10343;52.402;9.796;2023-02-19T09:21:12;101503.16;;;9.27;88.16
20368;BME280;10343;52.402;9.796;2023-02-19T09:23:40;101499.97;;;10.09;89.72
20368;BME280;10343;52.402;9.796;2023-02-19T09:26:09;101505.41;;;10.92;84.95
20368;BME280;10343;52.402;9.796;2023-02-19T09:28:38;101517.88;;;10.83;83.87
20368;BME280;10343;52.402;9.796;2023-02-19T09:31:09;101524.06;;;10.82;82.12
20368;BME280;10343;52.402;9.796;2023-02-19T09:33:41;101517.09;;;9.62;87.14
20368;BME280;10343;52.402;9.796;2023-02-19T09:36:10;101516.97;;;9.79;88.35
20368;BME280;10343;52.402;9.796;2023-02-19T09:38:38;101516.13;;;9.74;87.94
20368;BME280;10343;52.402;9.796;2023-02-19T09:41:08;101506.38;;;9.80;91.85
20368;BME280;10343;52.402;9.796;2023-02-19T09:43:42;101509.47;;;11.22;86.68
20368;BME280;10343;52.402;9.796;2023-02-19T09:46:21;101525.78;;;10.88;85.76
20368;BME280;10343;52.402;9.796;2023-02-19T09:48:51;101535.00;;;11.31;83.37
20368;BME280;10343;52.402;9.796;2023-02-19T09:51:20;101545.13;;;10.99;78.34
20368;BME280;10343;52.402;9.796;2023-02-19T09:53:50;101547.56;;;10.26;80.96
20368;BME280;10343;52.402;9.796;2023-02-19T09:56:19;101541.69;;;10.91;84.56
20368;BME280;10343;52.402;9.796;2023-02-19T09:58:49;101552.03;;;10.16;84.80
20368;BME280;10343;52.402;9.796;2023-02-19T10:01:21;101562.47;;;10.40;83.70
20368;BME280;10343;52.402;9.796;2023-02-19T10:03:51;101569.44;;;10.53;84.95
20368;BME280;10343;52.402;9.796;2023-02-19T10:06:21;101571.91;;;10.75;82.88
20368;BME280;10343;52.402;9.796;2023-02-19T10:08:52;101584.44;;;10.57;82.69
20368;BME280;10343;52.402;9.796;2023-02-19T10:11:24;101603.59;;;10.90;80.23
20368;BME280;10343;52.402;9.796;2023-02-19T10:14:00;101605.81;;;11.30;83.41
20368;BME280;10343;52.402;9.796;2023-02-19T10:16:31;101603.88;;;10.56;79.21
20368;BME280;10343;52.402;9.796;2023-02-19T10:19:00;101597.31;;;9.78;86.00
20368;BME280;10343;52.402;9.796;2023-02-19T10:21:29;101619.72;;;10.65;79.78
20368;BME280;10343;52.402;9.796;2023-02-19T10:24:00;101619.13;;;11.27;82.20
20368;BME280;10343;52.402;9.796;2023-02-19T10:26:29;101654.63;;;11.17;77.19
20368;BME280;10343;52.402;9.796;2023-02-19T10:29:02;101653.75;;;11.94;77.59
20368;BME280;10343;52.402;9.796;2023-02-19T10:31:31;101655.63;;;9.72;74.72
20368;BME280;10343;52.402;9.796;2023-02-19T10:34:00;101644.41;;;10.74;81.45
20368;BME280;10343;52.402;9.796;2023-02-19T10:36:32;101659.38;;;11.66;78.76
20368;BME280;10343;52.402;9.796;2023-02-19T10:39:02;101663.75;;;10.90;75.67
20368;BME280;10343;52.402;9.796;2023-02-19T10:41:33;101680.94;;;10.30;76.52
20368;BME280;10343;52.402;9.796;2023-02-19T10:44:05;101678.47;;;9.91;73.56
20368;BME280;10343;52.402;9.796;2023-02-19T10:46:39;101675.78;;;10.03;74.50
20368;BME280;10343;52.402;9.796;2023-02-19T10:49:19;101682.00;;;9.90;73.39
20368;BME280;10343;52.402;9.796;2023-02-19T10:51:51;101678.28;;;10.30;77.10
20368;BME280;10343;52.402;9.796;2023-02-19T10:54:26;101668.56;;;10.30;75.16
20368;BME280;10343;52.402;9.796;2023-02-19T10:57:15;101672.63;;;11.68;73.69
20368;BME280;10343;52.402;9.796;2023-02-19T10:59:58;101669.69;;;11.94;70.30
20368;BME280;10343;52.402;9.796;2023-02-19T11:02:29;101672.06;;;11.43;69.56
20368;BME280;10343;52.402;9.796;2023-02-19T11:05:14;101670.41;;;12.68;67.54
20368;BME280;10343;52.402;9.796;2023-02-19T11:07:45;101687.06;;;10.46;65.33
20368;BME280;10343;52.402;9.796;2023-02-19T11:10:26;101675.59;;;11.42;68.44
20368;BME280;10343;52.402;9.796;2023-02-19T11:12:56;101681.09;;;12.02;65.37
20368;BME280;10343;52.402;9.796;2023-02-19T11:15:29;101684.09;;;10.87;66.33
20368;BME280;10343;52.402;9.796;2023-02-19T11:17:59;101678.34;;;11.34;66.36
20368;BME280;10343;52.402;9.796;2023-02-19T11:20:30;101692.53;;;10.09;69.94
20368;BME280;10343;52.402;9.796;2023-02-19T11:23:00;101695.50;;;10.97;68.28
20368;BME280;10343;52.402;9.796;2023-02-19T11:25:32;101701.59;;;11.10;70.31
20368;BME280;10343;52.402;9.796;2023-02-19T11:28:02;101709.28;;;10.17;66.71
20368;BME280;10343;52.402;9.796;2023-02-19T11:30:37;101715.78;;;11.03;64.51
20368;BME280;10343;52.402;9.796;2023-02-19T11:33:24;101711.28;;;11.16;63.98
20368;BME280;10343;52.402;9.796;2023-02-19T11:38:43;101701.63;;;12.56;60.92
20368;BME280;10343;52.402;9.796;2023-02-19T11:41:19;101695.28;;;11.20;61.98
20368;BME280;10343;52.402;9.796;2023-02-19T11:44:02;101692.50;;;12.73;60.81
20368;BME280;10343;52.402;9.796;2023-02-19T11:46:39;101696.16;;;13.19;58.29
20368;BME280;10343;52.402;9.796;2023-02-19T11:49:19;101711.84;;;12.23;59.79
20368;BME280;10343;52.402;9.796;2023-02-19T11:52:01;101706.91;;;11.94;60.19
20368;BME280;10343;52.402;9.796;2023-02-19T11:54:45;101696.22;;;12.61;60.50
20368;BME280;10343;52.402;9.796;2023-02-19T11:57:26;101709.94;;;12.33;59.59
20368;BME280;10343;52.402;9.796;2023-02-19T12:00:14;101703.59;;;11.70;58.04
20368;BME280;10343;52.402;9.796;2023-02-19T12:02:58;101703.72;;;12.34;60.30
20368;BME280;10343;52.402;9.796;2023-02-19T12:05:42;101695.91;;;12.22;59.20
20368;BME280;10343;52.402;9.796;2023-02-19T12:08:45;101685.94;;;12.38;60.00
20368;BME280;10343;52.402;9.796;2023-02-19T12:11:36;101700.38;;;11.44;58.02
20368;BME280;10343;52.402;9.796;2023-02-19T12:14:21;101698.59;;;11.43;58.20
20368;BME280;10343;52.402;9.796;2023-02-19T12:16:59;101692.88;;;11.80;60.60
20368;BME280;10343;52.402;9.796;2023-02-19T12:19:37;101694.28;;;12.12;58.63
20368;BME280;10343;52.402;9.796;2023-02-19T12:22:26;101697.41;;;12.42;56.70
20368;BME280;10343;52.402;9.796;2023-02-19T12:25:17;101698.31;;;12.40;55.27
20368;BME280;10343;52.402;9.796;2023-02-19T12:28:03;101693.66;;;13.09;55.99
20368;BME280;10343;52.402;9.796;2023-02-19T12:30:51;101689.34;;;13.02;53.04
20368;BME280;10343;52.402;9.796;2023-02-19T12:33:36;101705.38;;;12.99;53.16
20368;BME280;10343;52.402;9.796;2023-02-19T12:36:18;101705.59;;;12.87;53.11
20368;BME280;10343;52.402;9.796;2023-02-19T12:38:54;101704.88;;;13.27;52.63
20368;BME280;10343;52.402;9.796;2023-02-19T12:41:36;101720.66;;;12.86;51.85
20368;BME280;10343;52.402;9.796;2023-02-19T12:44:12;101720.00;;;12.72;54.24
20368;BME280;10343;52.402;9.796;2023-02-19T12:46:45;101726.84;;;11.50;55.19
20368;BME280;10343;52.402;9.796;2023-02-19T12:49:18;101723.72;;;11.96;53.17
20368;BME280;10343;52.402;9.796;2023-02-19T12:51:54;101729.16;;;11.82;51.77
20368;BME280;10343;52.402;9.796;2023-02-19T12:54:26;101732.66;;;11.87;52.68
20368;BME280;10343;52.402;9.796;2023-02-19T12:56:59;101734.78;;;11.54;52.54
20368;BME280;10343;52.402;9.796;2023-02-19T12:59:31;101730.78;;;12.63;52.16
20368;BME280;10343;52.402;9.796;2023-02-19T13:02:06;101733.25;;;12.75;50.17
20368;BME280;10343;52.402;9.796;2023-02-19T13:04:42;101732.47;;;12.68;50.77
20368;BME280;10343;52.402;9.796;2023-02-19T13:07:17;101730.72;;;12.67;50.30
20368;BME280;10343;52.402;9.796;2023-02-19T13:09:50;101728.84;;;12.76;48.40
20368;BME280;10343;52.402;9.796;2023-02-19T13:12:23;101722.94;;;13.09;47.47
20368;BME280;10343;52.402;9.796;2023-02-19T13:14:56;101736.66;;;12.85;47.03
20368;BME280;10343;52.402;9.796;2023-02-19T13:17:27;101737.06;;;11.87;48.74
20368;BME280;10343;52.402;9.796;2023-02-19T13:20:06;101737.06;;;13.15;47.94